createdAt,value
2023-02-23T00:02:27.554Z,12.42
2023-02-23T00:04:54.223Z,12.30
2023-02-23T00:07:20.843Z,12.18
2023-02-23T00:09:47.453Z,11.80
2023-02-23T00:12:14.066Z,12.39
2023-02-23T00:14:51.688Z,12.01
2023-02-23T00:17:18.350Z,12.29
2023-02-23T00:19:47.828Z,12.17
2023-02-23T00:22:14.467Z,12.20
2023-02-23T00:24:43.352Z,12.33
2023-02-23T00:27:10.528Z,11.99
2023-02-23T00:29:37.150Z,12.15
2023-02-23T00:32:04.353Z,12.16
2023-02-23T00:34:31.044Z,12.26
2023-02-23T00:36:57.650Z,12.27
2023-02-23T00:39:24.426Z,12.28
2023-02-23T00:41:52.562Z,12.26
2023-02-23T00:44:21.121Z,12.19
2023-02-23T00:46:47.992Z,12.34
2023-02-23T00:49:14.689Z,12.44
2023-02-23T00:51:41.860Z,12.33
2023-02-23T00:54:12.012Z,12.30
2023-02-23T00:56:40.083Z,12.26
2023-02-23T00:59:07.869Z,12.16
2023-02-23T01:01:36.413Z,11.61
2023-02-23T01:04:03.610Z,11.71
2023-02-23T01:06:30.409Z,11.66
2023-02-23T01:08:57.082Z,11.84
2023-02-23T01:11:28.467Z,11.83
2023-02-23T01:13:58.219Z,11.77
2023-02-23T01:16:29.218Z,11.83
2023-02-23T01:18:59.184Z,11.80
2023-02-23T01:21:29.800Z,11.90
2023-02-23T01:23:57.151Z,12.05
2023-02-23T01:26:32.906Z,12.16
2023-02-23T01:29:02.416Z,11.94
2023-02-23T01:31:30.252Z,11.81
2023-02-23T01:33:59.902Z,11.72
2023-02-23T01:36:28.367Z,11.29
2023-02-23T01:38:55.977Z,11.34
2023-02-23T01:41:24.219Z,11.58
2023-02-23T01:44:07.819Z,11.80
2023-02-23T01:46:40.356Z,11.52
2023-02-23T01:49:25.154Z,11.59
2023-02-23T01:52:13.369Z,11.59
2023-02-23T01:54:50.203Z,11.80
2023-02-23T01:57:20.223Z,11.68
2023-02-23T01:59:49.963Z,11.85
2023-02-23T02:02:20.793Z,11.76
2023-02-23T02:04:48.136Z,11.66
2023-02-23T02:07:29.786Z,11.85
2023-02-23T02:09:58.982Z,11.88
2023-02-23T02:12:25.669Z,11.90
2023-02-23T02:14:53.403Z,11.56
2023-02-23T02:17:38.971Z,11.48
2023-02-23T02:20:42.086Z,11.63
2023-02-23T02:23:23.763Z,11.59
2023-02-23T02:26:08.898Z,11.87
2023-02-23T02:29:00.273Z,11.80
2023-02-23T02:31:35.798Z,11.61
2023-02-23T02:34:14.264Z,11.47
2023-02-23T02:37:28.774Z,11.22
2023-02-23T02:40:22.086Z,11.30
2023-02-23T02:43:06.321Z,11.41
2023-02-23T02:46:08.095Z,11.49
2023-02-23T02:48:57.661Z,11.59
2023-02-23T02:51:31.400Z,11.79
2023-02-23T02:54:19.257Z,11.83
2023-02-23T02:56:48.808Z,11.85
2023-02-23T02:59:19.641Z,11.95
2023-02-23T03:01:46.337Z,11.99
2023-02-23T03:04:25.325Z,12.20
2023-02-23T03:06:51.913Z,12.01
2023-02-23T03:09:33.517Z,11.76
2023-02-23T03:12:25.142Z,11.40
2023-02-23T03:14:58.978Z,11.76
2023-02-23T03:18:11.168Z,11.76
2023-02-23T03:20:54.338Z,11.76
2023-02-23T03:23:49.033Z,11.80
2023-02-23T03:26:19.653Z,11.81
2023-02-23T03:29:11.553Z,11.35
2023-02-23T03:31:58.395Z,11.68
2023-02-23T03:34:24.965Z,11.57
2023-02-23T03:37:03.808Z,11.73
2023-02-23T03:39:43.467Z,11.74
2023-02-23T03:42:17.782Z,11.62
2023-02-23T03:44:48.801Z,11.07
2023-02-23T03:47:21.388Z,11.51
2023-02-23T03:49:50.949Z,11.85
2023-02-23T03:52:26.791Z,11.92
2023-02-23T03:55:04.795Z,11.96
2023-02-23T03:57:37.449Z,11.83
2023-02-23T04:00:11.864Z,11.90
2023-02-23T04:02:42.919Z,11.60
2023-02-23T04:05:16.767Z,10.93
2023-02-23T04:07:49.203Z,11.39
2023-02-23T04:10:16.234Z,11.56
2023-02-23T04:12:58.048Z,11.56
2023-02-23T04:15:34.018Z,11.60
2023-02-23T04:18:01.016Z,11.54
2023-02-23T04:20:27.907Z,11.51
2023-02-23T04:22:54.630Z,11.66
2023-02-23T04:25:21.367Z,11.51
2023-02-23T04:27:48.509Z,11.69
2023-02-23T04:30:15.341Z,11.48
2023-02-23T04:32:42.238Z,11.50
2023-02-23T04:35:10.132Z,11.42
2023-02-23T04:37:37.904Z,11.61
2023-02-23T04:40:06.300Z,11.77
2023-02-23T04:42:32.980Z,11.67
2023-02-23T04:44:59.685Z,11.85
2023-02-23T04:47:26.492Z,11.72
2023-02-23T04:49:53.401Z,11.55
2023-02-23T04:52:20.075Z,11.71
2023-02-23T04:54:46.706Z,11.91
2023-02-23T04:57:13.334Z,11.57
2023-02-23T04:59:40.331Z,11.56
2023-02-23T05:02:07.342Z,11.75
2023-02-23T05:04:34.247Z,11.56
2023-02-23T05:07:01.568Z,11.40
2023-02-23T05:09:28.171Z,11.52
2023-02-23T05:11:54.866Z,11.45
2023-02-23T05:14:22.529Z,11.64
2023-02-23T05:16:49.188Z,11.49
2023-02-23T05:19:16.010Z,11.61
2023-02-23T05:21:42.636Z,11.61
2023-02-23T05:24:09.274Z,11.55
2023-02-23T05:26:35.980Z,11.66
2023-02-23T05:29:03.508Z,11.45
2023-02-23T05:31:30.227Z,11.43
2023-02-23T05:33:56.972Z,11.52
2023-02-23T05:36:23.621Z,11.55
2023-02-23T05:38:50.262Z,11.42
2023-02-23T05:41:20.673Z,11.11
2023-02-23T05:43:50.550Z,10.93
2023-02-23T05:46:21.547Z,10.47
2023-02-23T05:48:48.434Z,10.83
2023-02-23T05:51:17.125Z,11.26
2023-02-23T05:53:45.010Z,11.27
2023-02-23T05:56:17.625Z,10.91
2023-02-23T05:58:44.468Z,10.59
2023-02-23T06:01:11.207Z,11.08
2023-02-23T06:03:38.050Z,10.68
2023-02-23T06:06:05.192Z,10.62
2023-02-23T06:08:31.945Z,10.95
2023-02-23T06:10:58.730Z,11.19
2023-02-23T06:13:25.560Z,11.08
2023-02-23T06:15:52.550Z,11.31
2023-02-23T06:18:19.271Z,11.40
2023-02-23T06:20:46.201Z,11.34
2023-02-23T06:23:13.217Z,11.04
2023-02-23T06:25:39.867Z,11.15
2023-02-23T06:28:06.516Z,11.24
2023-02-23T06:30:33.155Z,11.45
2023-02-23T06:32:59.916Z,11.62
2023-02-23T06:35:26.634Z,11.45
2023-02-23T06:37:53.527Z,11.43
2023-02-23T06:40:21.324Z,11.58
2023-02-23T06:42:50.492Z,11.57
2023-02-23T06:45:18.038Z,11.56
2023-02-23T06:47:45.446Z,11.66
2023-02-23T06:50:12.221Z,11.91
2023-02-23T06:52:38.892Z,12.05
2023-02-23T06:55:06.478Z,12.20
2023-02-23T06:57:33.103Z,12.24
2023-02-23T06:59:59.876Z,12.11
2023-02-23T07:02:26.477Z,12.03
2023-02-23T07:04:53.157Z,11.87
2023-02-23T07:07:19.792Z,11.98
2023-02-23T07:09:46.415Z,11.19
2023-02-23T07:12:13.026Z,11.78
2023-02-23T07:14:39.922Z,12.05
2023-02-23T07:17:06.597Z,12.24
2023-02-23T07:19:33.234Z,12.33
2023-02-23T07:21:59.891Z,12.31
2023-02-23T07:24:26.519Z,12.43
2023-02-23T07:26:53.158Z,12.58
2023-02-23T07:29:19.803Z,12.76
2023-02-23T07:31:46.669Z,12.83
2023-02-23T07:34:13.451Z,12.86
2023-02-23T07:36:40.159Z,12.95
2023-02-23T07:39:07.079Z,13.02
2023-02-23T07:41:33.784Z,13.05
2023-02-23T07:44:00.714Z,13.00
2023-02-23T07:46:27.405Z,12.64
2023-02-23T07:48:54.153Z,11.74
2023-02-23T07:51:21.279Z,12.34
2023-02-23T07:53:48.051Z,12.54
2023-02-23T07:56:14.853Z,12.57
2023-02-23T07:58:43.376Z,12.65
2023-02-23T08:01:11.788Z,12.43
2023-02-23T08:03:38.884Z,12.67
2023-02-23T08:06:06.565Z,12.99
2023-02-23T08:08:33.250Z,13.07
2023-02-23T08:11:04.897Z,13.15
2023-02-23T08:13:32.377Z,13.26
2023-02-23T08:15:59.661Z,13.45
2023-02-23T08:18:26.554Z,13.67
2023-02-23T08:21:04.232Z,14.03
2023-02-23T08:23:33.036Z,13.94
2023-02-23T08:26:01.160Z,14.00
2023-02-23T08:28:29.446Z,14.09
2023-02-23T08:30:56.269Z,14.09
2023-02-23T08:33:22.968Z,14.16
2023-02-23T08:35:51.320Z,14.16
2023-02-23T08:38:19.117Z,14.29
2023-02-23T08:40:46.586Z,14.06
2023-02-23T08:43:13.249Z,13.70
2023-02-23T08:45:40.004Z,13.75
2023-02-23T08:48:08.000Z,13.57
2023-02-23T08:50:35.235Z,13.53
2023-02-23T08:53:01.929Z,13.52
2023-02-23T08:55:28.605Z,13.53
2023-02-23T08:57:55.265Z,13.63
2023-02-23T09:00:22.391Z,13.88
2023-02-23T09:02:49.052Z,13.62
2023-02-23T09:05:17.770Z,13.84
2023-02-23T09:07:45.401Z,13.96
2023-02-23T09:10:14.757Z,13.46
2023-02-23T09:12:41.455Z,13.64
2023-02-23T09:15:09.172Z,12.76
2023-02-23T09:17:36.485Z,13.51
2023-02-23T09:20:04.588Z,13.91
2023-02-23T09:22:31.982Z,13.85
2023-02-23T09:24:58.646Z,13.97
2023-02-23T09:27:25.366Z,14.21
2023-02-23T09:29:54.161Z,14.46
2023-02-23T09:32:21.023Z,14.47
2023-02-23T09:34:47.760Z,14.53
2023-02-23T09:37:14.601Z,14.33
2023-02-23T09:39:41.265Z,14.53
2023-02-23T09:42:24.082Z,14.17
2023-02-23T09:45:16.542Z,13.33
2023-02-23T09:48:23.394Z,13.49
2023-02-23T09:50:56.302Z,13.24
2023-02-23T09:53:22.881Z,13.57
2023-02-23T09:55:53.542Z,13.19
2023-02-23T09:58:26.622Z,12.73
2023-02-23T10:01:11.329Z,12.71
2023-02-23T10:03:54.209Z,12.32
2023-02-23T10:06:22.034Z,12.87
2023-02-23T10:08:55.945Z,12.98
2023-02-23T10:11:38.435Z,13.26
2023-02-23T10:14:45.409Z,13.43
2023-02-23T10:17:22.118Z,13.76
2023-02-23T10:20:26.781Z,13.81
2023-02-23T10:22:57.982Z,14.27
2023-02-23T10:25:28.665Z,14.23
2023-02-23T10:27:58.535Z,14.43
2023-02-23T10:30:28.464Z,13.45
2023-02-23T10:33:13.572Z,13.42
2023-02-23T10:35:40.263Z,13.98
2023-02-23T10:38:18.436Z,14.04
2023-02-23T10:40:50.820Z,14.07
2023-02-23T10:43:17.482Z,14.34
2023-02-23T10:45:47.711Z,13.74
2023-02-23T10:48:19.363Z,13.41
2023-02-23T10:50:48.577Z,13.82
2023-02-23T10:53:28.129Z,14.33
2023-02-23T10:56:15.189Z,14.81
2023-02-23T10:58:51.911Z,14.93
2023-02-23T11:01:49.152Z,14.66
2023-02-23T11:04:32.417Z,14.80
2023-02-23T11:07:16.654Z,14.84
2023-02-23T11:09:47.481Z,14.98
2023-02-23T11:12:20.304Z,15.12
2023-02-23T11:14:50.937Z,15.54
2023-02-23T11:17:29.620Z,14.89
2023-02-23T11:20:02.553Z,14.55
2023-02-23T11:22:36.182Z,14.73
2023-02-23T11:25:15.685Z,14.06
2023-02-23T11:27:48.150Z,14.46
2023-02-23T11:30:16.375Z,14.07
2023-02-23T11:32:44.363Z,14.11
2023-02-23T11:35:13.511Z,14.62
2023-02-23T11:37:40.241Z,14.44
2023-02-23T11:40:21.258Z,14.79
2023-02-23T11:43:14.535Z,14.45
2023-02-23T11:45:51.970Z,14.26
2023-02-23T11:48:28.538Z,14.51
2023-02-23T11:50:57.120Z,14.67
2023-02-23T11:53:39.291Z,15.08
2023-02-23T11:56:07.516Z,14.90
2023-02-23T11:58:47.417Z,15.37
2023-02-23T12:01:17.493Z,14.62
2023-02-23T12:03:57.030Z,14.29
2023-02-23T12:06:39.778Z,14.68
2023-02-23T12:09:27.819Z,14.67
2023-02-23T12:12:06.994Z,14.59
2023-02-23T12:14:42.563Z,14.37
2023-02-23T12:17:19.828Z,14.61
2023-02-23T12:19:59.447Z,14.45
2023-02-23T12:22:37.988Z,14.10
2023-02-23T12:25:13.643Z,14.19
2023-02-23T12:28:07.640Z,14.01
2023-02-23T12:30:51.304Z,14.36
2023-02-23T12:33:39.302Z,14.48
2023-02-23T12:36:26.570Z,14.71
2023-02-23T12:39:00.695Z,14.54
2023-02-23T12:41:38.828Z,14.62
2023-02-23T12:44:30.080Z,14.50
2023-02-23T12:47:09.025Z,14.45
2023-02-23T12:49:39.220Z,14.34
2023-02-23T12:52:19.541Z,13.80
2023-02-23T12:54:46.560Z,13.78
2023-02-23T12:57:40.967Z,13.78
2023-02-23T13:00:36.876Z,13.82
2023-02-23T13:03:25.105Z,14.44
2023-02-23T13:06:02.625Z,14.10
2023-02-23T13:08:32.058Z,14.72
2023-02-23T13:11:16.905Z,14.81
2023-02-23T13:14:16.044Z,14.79
2023-02-23T13:16:50.929Z,14.19
2023-02-23T13:19:34.049Z,13.93
2023-02-23T13:22:24.361Z,13.82
2023-02-23T13:24:57.837Z,13.41
2023-02-23T13:27:50.317Z,14.04
2023-02-23T13:30:17.630Z,14.18
2023-02-23T13:32:46.843Z,14.16
2023-02-23T13:35:25.246Z,14.36
2023-02-23T13:37:59.274Z,13.90
2023-02-23T13:40:35.961Z,13.99
2023-02-23T13:43:20.562Z,14.21
2023-02-23T13:46:05.788Z,14.14
2023-02-23T13:48:56.710Z,14.28
2023-02-23T13:51:39.363Z,14.23
2023-02-23T13:54:16.637Z,14.69
2023-02-23T13:56:58.867Z,14.26
2023-02-23T13:59:37.351Z,14.08
2023-02-23T14:02:22.667Z,13.96
2023-02-23T14:04:50.671Z,13.74
2023-02-23T14:07:30.794Z,13.57
2023-02-23T14:10:06.039Z,13.54
2023-02-23T14:12:40.336Z,14.19
2023-02-23T14:15:25.629Z,14.14
2023-02-23T14:17:57.384Z,13.92
2023-02-23T14:20:54.248Z,14.38
2023-02-23T14:23:21.777Z,13.63
2023-02-23T14:25:48.416Z,14.18
2023-02-23T14:28:46.706Z,14.79
2023-02-23T14:31:13.450Z,15.08
2023-02-23T14:33:43.228Z,14.86
2023-02-23T14:36:22.218Z,15.17
2023-02-23T14:39:01.996Z,15.08
2023-02-23T14:41:59.198Z,15.47
2023-02-23T14:44:38.745Z,15.19
2023-02-23T14:47:42.401Z,15.82
2023-02-23T14:50:19.789Z,14.81
2023-02-23T14:52:47.748Z,14.49
2023-02-23T14:55:29.240Z,14.75
2023-02-23T14:57:57.384Z,15.11
2023-02-23T15:00:28.108Z,15.55
2023-02-23T15:03:10.298Z,15.22
2023-02-23T15:05:45.126Z,14.80
2023-02-23T15:08:20.900Z,14.84
2023-02-23T15:10:51.478Z,15.25
2023-02-23T15:13:31.202Z,15.46
2023-02-23T15:16:04.417Z,15.13
2023-02-23T15:18:38.270Z,15.57
2023-02-23T15:21:12.504Z,15.42
2023-02-23T15:23:40.009Z,15.60
2023-02-23T15:26:29.800Z,15.61
2023-02-23T15:29:22.823Z,15.52
2023-02-23T15:31:55.486Z,15.95
2023-02-23T15:34:25.820Z,15.49
2023-02-23T15:36:56.731Z,15.55
2023-02-23T15:39:48.700Z,15.51
2023-02-23T15:42:24.521Z,15.22
2023-02-23T15:45:05.568Z,15.62
2023-02-23T15:47:37.879Z,15.54
2023-02-23T15:50:18.096Z,15.65
2023-02-23T15:52:52.305Z,15.74
2023-02-23T15:55:25.693Z,16.05
2023-02-23T15:58:00.705Z,15.68
2023-02-23T16:00:39.206Z,15.50
2023-02-23T16:03:08.846Z,15.71
2023-02-23T16:05:41.915Z,15.80
2023-02-23T16:08:24.163Z,15.81
2023-02-23T16:11:00.932Z,15.56
2023-02-23T16:13:28.013Z,14.89
2023-02-23T16:15:56.395Z,15.28
2023-02-23T16:18:35.787Z,15.58
2023-02-23T16:21:04.759Z,15.53
2023-02-23T16:23:34.444Z,15.66
2023-02-23T16:26:12.407Z,15.00
2023-02-23T16:28:44.836Z,14.02
2023-02-23T16:31:13.089Z,13.58
2023-02-23T16:33:51.014Z,14.05
2023-02-23T16:36:24.068Z,14.24
2023-02-23T16:39:00.151Z,13.99
2023-02-23T16:41:33.867Z,13.40
2023-02-23T16:44:05.129Z,13.74
2023-02-23T16:46:53.702Z,13.58
2023-02-23T16:49:20.981Z,14.19
2023-02-23T16:51:47.791Z,14.05
2023-02-23T16:54:14.743Z,13.95
2023-02-23T16:56:41.818Z,13.99
2023-02-23T16:59:16.194Z,14.15
2023-02-23T17:01:43.493Z,14.34
2023-02-23T17:04:15.628Z,14.29
2023-02-23T17:06:43.439Z,14.16
2023-02-23T17:09:11.962Z,14.17
2023-02-23T17:11:41.197Z,13.62
2023-02-23T17:14:07.916Z,13.77
2023-02-23T17:16:34.664Z,13.82
2023-02-23T17:19:01.285Z,13.85
2023-02-23T17:21:27.951Z,13.86
2023-02-23T17:23:54.609Z,13.81
2023-02-23T17:26:23.962Z,13.90
2023-02-23T17:28:51.687Z,13.93
2023-02-23T17:31:20.946Z,13.87
2023-02-23T17:33:49.202Z,13.64
2023-02-23T17:36:17.761Z,13.58
2023-02-23T17:38:44.629Z,13.47
2023-02-23T17:41:19.466Z,13.49
2023-02-23T17:43:46.306Z,13.20
2023-02-23T17:46:13.847Z,13.10
2023-02-23T17:48:40.547Z,13.15
2023-02-23T17:51:09.779Z,13.37
2023-02-23T17:53:36.831Z,13.37
2023-02-23T17:56:04.108Z,12.72
2023-02-23T17:58:31.229Z,13.09
2023-02-23T18:01:01.273Z,13.35
2023-02-23T18:03:30.855Z,13.72
2023-02-23T18:06:09.616Z,13.48
2023-02-23T18:08:37.779Z,13.40
2023-02-23T18:11:04.468Z,13.20
2023-02-23T18:13:31.856Z,13.64
2023-02-23T18:16:03.053Z,13.30
2023-02-23T18:18:30.061Z,12.47
2023-02-23T18:20:59.653Z,12.48
2023-02-23T18:23:28.213Z,12.93
2023-02-23T18:25:55.004Z,12.70
2023-02-23T18:28:21.634Z,12.97
2023-02-23T18:30:48.280Z,12.92
2023-02-23T18:33:15.092Z,13.30
2023-02-23T18:35:43.985Z,13.08
2023-02-23T18:38:12.723Z,13.44
2023-02-23T18:40:39.854Z,13.04
2023-02-23T18:43:07.105Z,12.77
2023-02-23T18:45:34.583Z,13.14
2023-02-23T18:48:01.237Z,12.93
2023-02-23T18:50:28.218Z,12.15
2023-02-23T18:52:56.526Z,11.91
2023-02-23T18:55:23.906Z,11.80
2023-02-23T18:57:51.308Z,12.50
2023-02-23T19:00:19.503Z,12.22
2023-02-23T19:02:46.302Z,11.92
2023-02-23T19:05:15.928Z,12.19
2023-02-23T19:07:43.438Z,11.91
2023-02-23T19:10:13.145Z,11.72
2023-02-23T19:12:39.862Z,12.08
2023-02-23T19:15:07.810Z,12.37
2023-02-23T19:17:36.036Z,12.69
2023-02-23T19:20:04.050Z,12.81
2023-02-23T19:22:30.699Z,12.99
2023-02-23T19:24:57.376Z,13.08
2023-02-23T19:27:24.007Z,13.30
2023-02-23T19:29:50.673Z,13.20
2023-02-23T19:32:17.434Z,12.81
2023-02-23T19:34:44.675Z,12.68
2023-02-23T19:37:11.301Z,13.30
2023-02-23T19:39:38.243Z,12.26
2023-02-23T19:42:04.953Z,12.11
2023-02-23T19:44:31.587Z,11.44
2023-02-23T19:46:58.424Z,11.07
2023-02-23T19:49:25.348Z,11.16
2023-02-23T19:51:52.557Z,11.60
2023-02-23T19:54:19.979Z,11.05
2023-02-23T19:56:47.122Z,11.01
2023-02-23T19:59:15.418Z,10.67
2023-02-23T20:01:42.132Z,10.46
2023-02-23T20:04:09.025Z,10.61
2023-02-23T20:06:41.986Z,10.62
2023-02-23T20:09:08.761Z,10.48
2023-02-23T20:11:35.878Z,10.49
2023-02-23T20:14:04.155Z,10.48
2023-02-23T20:16:31.694Z,10.55
2023-02-23T20:18:58.687Z,10.24
2023-02-23T20:21:27.781Z,10.30
2023-02-23T20:23:55.873Z,10.31
2023-02-23T20:26:29.158Z,10.38
2023-02-23T20:28:57.817Z,10.24
2023-02-23T20:31:28.279Z,10.14
2023-02-23T20:33:57.579Z,10.14
2023-02-23T20:36:25.566Z,10.07
2023-02-23T20:38:53.248Z,10.15
2023-02-23T20:41:22.838Z,10.13
2023-02-23T20:43:49.773Z,10.23
2023-02-23T20:46:16.965Z,10.16
2023-02-23T20:48:43.927Z,10.24
2023-02-23T20:51:12.397Z,10.36
2023-02-23T20:53:40.264Z,10.28
2023-02-23T20:56:09.958Z,10.75
2023-02-23T20:58:38.969Z,11.34
2023-02-23T21:01:13.505Z,11.87
2023-02-23T21:03:40.215Z,12.31
2023-02-23T21:06:06.955Z,12.78
2023-02-23T21:08:33.547Z,12.79
2023-02-23T21:11:06.353Z,12.98
2023-02-23T21:13:33.552Z,12.87
2023-02-23T21:16:00.245Z,12.58
2023-02-23T21:18:28.111Z,12.62
2023-02-23T21:20:55.524Z,12.76
2023-02-23T21:23:26.374Z,12.33
2023-02-23T21:25:52.955Z,12.34
2023-02-23T21:28:20.433Z,12.60
2023-02-23T21:30:47.318Z,11.96
2023-02-23T21:33:14.561Z,12.06
2023-02-23T21:35:43.239Z,11.72
2023-02-23T21:38:09.829Z,11.58
2023-02-23T21:40:36.474Z,11.75
2023-02-23T21:43:03.093Z,11.83
2023-02-23T21:45:29.709Z,11.85
2023-02-23T21:47:56.362Z,11.72
2023-02-23T21:50:23.029Z,11.89
2023-02-23T21:52:49.661Z,12.10
2023-02-23T21:55:24.446Z,11.89
2023-02-23T21:57:51.878Z,12.14
2023-02-23T22:00:21.736Z,12.02
2023-02-23T22:02:51.451Z,11.97
2023-02-23T22:05:19.096Z,12.16
2023-02-23T22:07:51.199Z,12.26
2023-02-23T22:10:23.090Z,11.85
2023-02-23T22:12:50.774Z,12.00
2023-02-23T22:15:17.519Z,12.16
2023-02-23T22:17:44.187Z,12.15
2023-02-23T22:20:11.704Z,11.84
2023-02-23T22:22:38.406Z,11.69
2023-02-23T22:25:07.394Z,12.22
2023-02-23T22:27:34.057Z,11.70
2023-02-23T22:30:02.147Z,11.57
2023-02-23T22:32:30.734Z,11.47
2023-02-23T22:34:57.569Z,11.92
2023-02-23T22:37:24.183Z,12.17
2023-02-23T22:39:50.779Z,12.24
2023-02-23T22:42:17.394Z,11.99
2023-02-23T22:44:44.042Z,12.21
2023-02-23T22:47:10.763Z,12.40
2023-02-23T22:49:37.386Z,12.44
2023-02-23T22:52:04.056Z,12.36
2023-02-23T22:54:30.682Z,12.34
2023-02-23T22:56:57.318Z,12.20
2023-02-23T22:59:23.969Z,12.24
2023-02-23T23:01:50.706Z,12.06
2023-02-23T23:04:17.511Z,11.26
2023-02-23T23:06:44.179Z,10.91
2023-02-23T23:09:12.262Z,11.20
2023-02-23T23:11:39.577Z,11.41
2023-02-23T23:14:06.222Z,11.30
2023-02-23T23:16:35.247Z,11.15
2023-02-23T23:19:06.145Z,10.30
2023-02-23T23:21:34.550Z,10.57
2023-02-23T23:24:03.723Z,9.86
2023-02-23T23:26:30.378Z,10.20
2023-02-23T23:28:59.535Z,9.68
2023-02-23T23:31:32.336Z,10.00
2023-02-23T23:34:01.877Z,9.90
2023-02-23T23:36:40.890Z,9.56
2023-02-23T23:39:07.501Z,9.35
2023-02-23T23:41:34.146Z,9.21
2023-02-23T23:44:01.841Z,9.27
2023-02-23T23:46:31.721Z,9.31
2023-02-23T23:49:00.737Z,9.58
2023-02-23T23:51:32.969Z,10.41
2023-02-23T23:54:01.756Z,10.38
2023-02-23T23:56:29.454Z,11.04
2023-02-23T23:58:59.118Z,11.17
